^^
Saratoga-Weather Station Historical Data
Daily Summary for February 28, 2020 Units:  Both    English   Metric
Daily Weekly Monthly Yearly Custom
  High: Low: Average:
Temperature: 63 °F /  17.2 °C 51.8 °F /  11 °C 56.5 °F /  13.6 °C
Dew Point: 55.4 °F /  13 °C 46.8 °F /  8.2 °C 51.1 °F /  10.6 °C
Humidity: 95% 64% 83%
Wind Speed: 11mph /  17.7km/h - 1.6mph /  2.5km/h
Wind Gust: 16mph /  25.7km/h - -
Wind- - SW
Pressure: 29.7 in /  1005.8 hPa 29.6 in /  1003.0 hPa -
Precipitation: 0.16 in /  4.1 mm    
Historical Graphs
 
 
Tabular Data for February 28, 2020
Time Temperature Dew Point Pressure Wind Wind Speed Wind Gust Humidity Rainfall Rate (Hourly) solar
00:04 54.1 °F /  12.3 °C 47.1 °F /  8.4 °C 29.7in /  1005.1hPa Calm     77% 0in /  0.0mm 0 W/m2
00:09 54 °F /  12.2 °C 46.9 °F /  8.3 °C 29.7in /  1005.1hPa Calm     77% 0in /  0.0mm 0 W/m2
00:14 54 °F /  12.2 °C 47.3 °F /  8.5 °C 29.7in /  1005.1hPa Calm     78% 0in /  0.0mm 0 W/m2
00:19 53.8 °F /  12.1 °C 47.1 °F /  8.4 °C 29.7in /  1005.1hPa Calm     78% 0in /  0.0mm 0 W/m2
00:24 53.8 °F /  12.1 °C 47.5 °F /  8.6 °C 29.7in /  1005.1hPa Calm     79% 0in /  0.0mm 0 W/m2
00:30 53.4 °F /  11.9 °C 47.1 °F /  8.4 °C 29.7in /  1005.1hPa Calm     79% 0in /  0.0mm 0 W/m2
00:35 53.4 °F /  11.9 °C 47.5 °F /  8.6 °C 29.7in /  1005.1hPa Calm     80% 0in /  0.0mm 0 W/m2
00:40 53.2 °F /  11.8 °C 47.3 °F /  8.5 °C 29.7in /  1005.1hPa Calm     80% 0in /  0.0mm 0 W/m2
00:45 53.2 °F /  11.8 °C 47.3 °F /  8.5 °C 29.7in /  1005.1hPa Calm     80% 0in /  0.0mm 0 W/m2
00:50 53.1 °F /  11.7 °C 47.1 °F /  8.4 °C 29.7in /  1005.1hPa Calm     80% 0in /  0.0mm 0 W/m2
00:55 53.1 °F /  11.7 °C 47.1 °F /  8.4 °C 29.7in /  1005.1hPa Calm     80% 0in /  0.0mm 0 W/m2
01:00 52.9 °F /  11.6 °C 47.3 °F /  8.5 °C 29.7in /  1005.1hPa Calm     81% 0in /  0.0mm 0 W/m2
01:05 52.9 °F /  11.6 °C 47.3 °F /  8.5 °C 29.7in /  1005.1hPa Calm     81% 0in /  0.0mm 0 W/m2
01:10 52.7 °F /  11.5 °C 47.1 °F /  8.4 °C 29.7in /  1004.7hPa Calm     81% 0in /  0.0mm 0 W/m2
01:15 52.5 °F /  11.4 °C 46.9 °F /  8.3 °C 29.7in /  1004.7hPa Calm     81% 0in /  0.0mm 0 W/m2
01:20 52.5 °F /  11.4 °C 46.9 °F /  8.3 °C 29.7in /  1005.1hPa Calm     81% 0in /  0.0mm 0 W/m2
01:25 52.5 °F /  11.4 °C 47.1 °F /  8.4 °C 29.7in /  1005.1hPa Calm     82% 0in /  0.0mm 0 W/m2
01:30 52.3 °F /  11.3 °C 46.9 °F /  8.3 °C 29.7in /  1005.1hPa Calm     82% 0in /  0.0mm 0 W/m2
01:35 52.2 °F /  11.2 °C 46.8 °F /  8.2 °C 29.7in /  1005.1hPa Calm     82% 0in /  0.0mm 0 W/m2
01:40 52.2 °F /  11.2 °C 46.8 °F /  8.2 °C 29.7in /  1005.1hPa Calm     82% 0in /  0.0mm 0 W/m2
01:45 52.2 °F /  11.2 °C 46.8 °F /  8.2 °C 29.7in /  1005.1hPa Calm   1mph /  1.6km/h 82% 0in /  0.0mm 0 W/m2
01:50 52 °F /  11.1 °C 46.9 °F /  8.3 °C 29.7in /  1005.1hPa Calm     83% 0in /  0.0mm 0 W/m2
01:55 52 °F /  11.1 °C 46.9 °F /  8.3 °C 29.7in /  1005.1hPa Calm     83% 0in /  0.0mm 0 W/m2
02:00 51.8 °F /  11 °C 46.8 °F /  8.2 °C 29.7in /  1004.7hPa Calm     83% 0in /  0.0mm 0 W/m2
02:05 51.8 °F /  11 °C 46.8 °F /  8.2 °C 29.7in /  1004.7hPa Calm   1mph /  1.6km/h 83% 0in /  0.0mm 0 W/m2
02:10 51.8 °F /  11 °C 46.8 °F /  8.2 °C 29.7in /  1004.7hPa Calm     83% 0in /  0.0mm 0 W/m2
02:15 51.8 °F /  11 °C 46.8 °F /  8.2 °C 29.7in /  1004.7hPa Calm   1mph /  1.6km/h 83% 0in /  0.0mm 0 W/m2
02:20 52 °F /  11.1 °C 47.3 °F /  8.5 °C 29.7in /  1004.7hPa Calm     84% 0in /  0.0mm 0 W/m2
02:25 52 °F /  11.1 °C 46.9 °F /  8.3 °C 29.7in /  1004.7hPa Calm   1mph /  1.6km/h 83% 0in /  0.0mm 0 W/m2
02:30 52.2 °F /  11.2 °C 47.1 °F /  8.4 °C 29.7in /  1004.7hPa Calm   1mph /  1.6km/h 83% 0in /  0.0mm 0 W/m2
02:35 52.2 °F /  11.2 °C 47.1 °F /  8.4 °C 29.7in /  1004.7hPa Calm   1mph /  1.6km/h 83% 0in /  0.0mm 0 W/m2
02:40 52.2 °F /  11.2 °C 47.1 °F /  8.4 °C 29.7in /  1004.7hPa SSW 2mph /  3.2km/h 2mph /  3.2km/h 83% 0in /  0.0mm 0 W/m2
02:45 52.3 °F /  11.3 °C 47.3 °F /  8.5 °C 29.7in /  1004.7hPa Calm     83% 0in /  0.0mm 0 W/m2
02:50 52.3 °F /  11.3 °C 47.3 °F /  8.5 °C 29.7in /  1004.7hPa Calm   1mph /  1.6km/h 83% 0in /  0.0mm 0 W/m2
02:55 52.5 °F /  11.4 °C 47.5 °F /  8.6 °C 29.7in /  1004.7hPa Calm   1mph /  1.6km/h 83% 0in /  0.0mm 0 W/m2
03:00 52.7 °F /  11.5 °C 47.7 °F /  8.7 °C 29.7in /  1004.7hPa Calm     83% 0in /  0.0mm 0 W/m2
03:05 52.9 °F /  11.6 °C 47.8 °F /  8.8 °C 29.7in /  1004.7hPa Calm     83% 0in /  0.0mm 0 W/m2
03:10 53.1 °F /  11.7 °C 48 °F /  8.9 °C 29.7in /  1004.7hPa SE 0.9mph /  1.4km/h 3mph /  4.8km/h 83% 0in /  0.0mm 0 W/m2
03:15 53.2 °F /  11.8 °C 47.8 °F /  8.8 °C 29.7in /  1004.7hPa SE 0.9mph /  1.4km/h 1mph /  1.6km/h 82% 0in /  0.0mm 0 W/m2
03:20 53.6 °F /  12 °C 48.2 °F /  9 °C 29.7in /  1004.7hPa Calm   1mph /  1.6km/h 82% 0in /  0.0mm 0 W/m2
03:25 53.8 °F /  12.1 °C 48.4 °F /  9.1 °C 29.7in /  1004.7hPa Calm     82% 0in /  0.0mm 0 W/m2
03:30 53.8 °F /  12.1 °C 48.4 °F /  9.1 °C 29.7in /  1004.7hPa Calm     82% 0in /  0.0mm 0 W/m2
03:35 54 °F /  12.2 °C 48.6 °F /  9.2 °C 29.7in /  1004.7hPa Calm     82% 0in /  0.0mm 0 W/m2
03:40 54 °F /  12.2 °C 48.6 °F /  9.2 °C 29.7in /  1004.7hPa Calm     82% 0in /  0.0mm 0 W/m2
03:45 54.1 °F /  12.3 °C 48.7 °F /  9.3 °C 29.7in /  1004.7hPa Calm     82% 0in /  0.0mm 0 W/m2
03:50 54.3 °F /  12.4 °C 48.9 °F /  9.4 °C 29.7in /  1004.7hPa Calm     82% 0in /  0.0mm 0 W/m2
03:55 54.3 °F /  12.4 °C 48.6 °F /  9.2 °C 29.7in /  1004.7hPa Calm     81% 0in /  0.0mm 0 W/m2
04:00 54.3 °F /  12.4 °C 48.9 °F /  9.4 °C 29.7in /  1004.7hPa Calm     82% 0in /  0.0mm 0 W/m2
04:06 54.3 °F /  12.4 °C 48.9 °F /  9.4 °C 29.7in /  1004.7hPa Calm     82% 0in /  0.0mm 0 W/m2
04:11 54.3 °F /  12.4 °C 48.9 °F /  9.4 °C 29.7in /  1004.7hPa Calm     82% 0in /  0.0mm 0 W/m2
04:16 54.3 °F /  12.4 °C 49.3 °F /  9.6 °C 29.7in /  1004.4hPa Calm     83% 0in /  0.0mm 0 W/m2
04:21 54.3 °F /  12.4 °C 49.3 °F /  9.6 °C 29.7in /  1004.4hPa Calm     83% 0in /  0.0mm 0 W/m2
04:26 54.3 °F /  12.4 °C 49.3 °F /  9.6 °C 29.7in /  1004.4hPa Calm     83% 0in /  0.0mm 0 W/m2
04:31 54.3 °F /  12.4 °C 49.3 °F /  9.6 °C 29.7in /  1004.4hPa Calm     83% 0in /  0.0mm 0 W/m2
04:36 54.3 °F /  12.4 °C 49.3 °F /  9.6 °C 29.7in /  1004.4hPa Calm     83% 0in /  0.0mm 0 W/m2
04:41 54.5 °F /  12.5 °C 49.5 °F /  9.7 °C 29.7in /  1004.4hPa Calm     83% 0in /  0.0mm 0 W/m2
04:46 54.7 °F /  12.6 °C 49.6 °F /  9.8 °C 29.7in /  1004.4hPa Calm     83% 0in /  0.0mm 0 W/m2
04:51 54.7 °F /  12.6 °C 49.6 °F /  9.8 °C 29.7in /  1004.4hPa Calm     83% 0in /  0.0mm 0 W/m2
04:56 54.9 °F /  12.7 °C 49.8 °F /  9.9 °C 29.7in /  1004.4hPa Calm   1mph /  1.6km/h 83% 0in /  0.0mm 0 W/m2
05:01 54.9 °F /  12.7 °C 49.8 °F /  9.9 °C 29.7in /  1004.1hPa Calm     83% 0in /  0.0mm 0 W/m2
05:06 54.9 °F /  12.7 °C 49.5 °F /  9.7 °C 29.7in /  1004.1hPa Calm     82% 0in /  0.0mm 0 W/m2
05:11 54.9 °F /  12.7 °C 49.5 °F /  9.7 °C 29.7in /  1004.1hPa Calm     82% 0in /  0.0mm 0 W/m2
05:16 54.9 °F /  12.7 °C 49.5 °F /  9.7 °C 29.7in /  1004.1hPa Calm   1mph /  1.6km/h 82% 0in /  0.0mm 0 W/m2
05:21 54.9 °F /  12.7 °C 49.5 °F /  9.7 °C 29.7in /  1004.1hPa Calm     82% 0in /  0.0mm 0 W/m2
05:26 54.9 °F /  12.7 °C 49.5 °F /  9.7 °C 29.7in /  1004.1hPa Calm     82% 0in /  0.0mm 0 W/m2
05:31 54.7 °F /  12.6 °C 49.6 °F /  9.8 °C 29.7in /  1004.1hPa Calm     83% 0in /  0.0mm 0 W/m2
05:37 54.9 °F /  12.7 °C 49.8 °F /  9.9 °C 29.7in /  1004.1hPa Calm     83% 0in /  0.0mm 0 W/m2
05:42 54.9 °F /  12.7 °C 50.2 °F /  10.1 °C 29.7in /  1004.1hPa Calm     84% 0in /  0.0mm 0 W/m2
05:47 54.9 °F /  12.7 °C 50.4 °F /  10.2 °C 29.6in /  1003.7hPa ESE 0.9mph /  1.4km/h 1mph /  1.6km/h 85% 0in /  0.0mm 0 W/m2
05:52 54.9 °F /  12.7 °C 50.4 °F /  10.2 °C 29.6in /  1003.7hPa Calm     85% 0in /  0.0mm 0 W/m2
05:57 54.9 °F /  12.7 °C 50.7 °F /  10.4 °C 29.6in /  1003.7hPa Calm   1mph /  1.6km/h 86% 0in /  0.0mm 0 W/m2
06:02 54.9 °F /  12.7 °C 51.1 °F /  10.6 °C 29.6in /  1003.7hPa Calm     87% 0in /  0.0mm 0 W/m2
06:07 54.9 °F /  12.7 °C 51.1 °F /  10.6 °C 29.6in /  1003.7hPa Calm     87% 0in /  0.0mm 0 W/m2
06:12 54.9 °F /  12.7 °C 51.1 °F /  10.6 °C 29.6in /  1003.7hPa Calm     87% 0in /  0.0mm 0 W/m2
06:17 55 °F /  12.8 °C 51.6 °F /  10.9 °C 29.6in /  1003.7hPa Calm     88% 0in /  0.0mm 0 W/m2
06:22 55 °F /  12.8 °C 51.6 °F /  10.9 °C 29.6in /  1003.7hPa Calm     88% 0in /  0.0mm 0 W/m2
06:27 55 °F /  12.8 °C 51.6 °F /  10.9 °C 29.6in /  1003.7hPa Calm     88% 0in /  0.0mm 0 W/m2
06:32 55 °F /  12.8 °C 51.6 °F /  10.9 °C 29.6in /  1003.4hPa Calm     88% 0in /  0.0mm 0 W/m2
06:38 55 °F /  12.8 °C 51.6 °F /  10.9 °C 29.6in /  1003.4hPa Calm   2mph /  3.2km/h 88% 0in /  0.0mm 5 W/m2
06:43 55.2 °F /  12.9 °C 52 °F /  11.1 °C 29.6in /  1003.4hPa NE 0.9mph /  1.4km/h 3mph /  4.8km/h 89% 0in /  0.0mm 7 W/m2
06:48 55.2 °F /  12.9 °C 52 °F /  11.1 °C 29.6in /  1003.4hPa Calm   2mph /  3.2km/h 89% 0in /  0.0mm 9 W/m2
06:53 55.6 °F /  13.1 °C 52.3 °F /  11.3 °C 29.6in /  1003.4hPa East 0.9mph /  1.4km/h 3mph /  4.8km/h 89% 0in /  0.0mm 7 W/m2
06:58 55.6 °F /  13.1 °C 52.7 °F /  11.5 °C 29.6in /  1003.4hPa East 0.9mph /  1.4km/h 2mph /  3.2km/h 90% 0.01in /  0.2mm 7 W/m2
07:03 55.6 °F /  13.1 °C 52.7 °F /  11.5 °C 29.6in /  1003.4hPa ESE 0.9mph /  1.4km/h 2mph /  3.2km/h 90% 0.02in /  0.5mm 9 W/m2
07:08 55.4 °F /  13 °C 52.9 °F /  11.6 °C 29.6in /  1003.4hPa ESE 0.9mph /  1.4km/h 1mph /  1.6km/h 91% 0.02in /  0.5mm 11 W/m2
07:13 55.2 °F /  12.9 °C 52.7 °F /  11.5 °C 29.6in /  1003.4hPa ESE 0.9mph /  1.4km/h 2mph /  3.2km/h 91% 0.03in /  0.8mm 12 W/m2
07:18 55.2 °F /  12.9 °C 52.7 °F /  11.5 °C 29.6in /  1003.4hPa Calm   1mph /  1.6km/h 91% 0.04in /  1.0mm 9 W/m2
07:23 55 °F /  12.8 °C 52.7 °F /  11.5 °C 29.6in /  1003.4hPa ESE 0.9mph /  1.4km/h 1mph /  1.6km/h 92% 0.05in /  1.3mm 11 W/m2
07:28 55 °F /  12.8 °C 52.7 °F /  11.5 °C 29.6in /  1003.4hPa Calm     92% 0.05in /  1.3mm 14 W/m2
07:33 55 °F /  12.8 °C 52.7 °F /  11.5 °C 29.6in /  1003.0hPa Calm   1mph /  1.6km/h 92% 0.05in /  1.3mm 18 W/m2
07:38 54.9 °F /  12.7 °C 52.9 °F /  11.6 °C 29.6in /  1003.0hPa East 0.9mph /  1.4km/h 2mph /  3.2km/h 93% 0.06in /  1.5mm 25 W/m2
07:43 54.9 °F /  12.7 °C 52.9 °F /  11.6 °C 29.6in /  1003.0hPa Calm   1mph /  1.6km/h 93% 0.06in /  1.5mm 23 W/m2
07:48 54.9 °F /  12.7 °C 52.9 °F /  11.6 °C 29.6in /  1003.0hPa Calm   2mph /  3.2km/h 93% 0.07in /  1.8mm 21 W/m2
07:53 54.9 °F /  12.7 °C 52.9 °F /  11.6 °C 29.6in /  1003.0hPa Calm   1mph /  1.6km/h 93% 0.08in /  2.0mm 19 W/m2
07:58 54.9 °F /  12.7 °C 53.2 °F /  11.8 °C 29.6in /  1003.0hPa Calm   1mph /  1.6km/h 94% 0.07in /  1.8mm 16 W/m2
08:03 54.9 °F /  12.7 °C 53.2 °F /  11.8 °C 29.6in /  1003.0hPa Calm   1mph /  1.6km/h 94% 0.07in /  1.8mm 23 W/m2
08:08 54.9 °F /  12.7 °C 53.2 °F /  11.8 °C 29.6in /  1003.0hPa ENE 0.9mph /  1.4km/h 2mph /  3.2km/h 94% 0.06in /  1.5mm 25 W/m2
08:13 54.9 °F /  12.7 °C 53.2 °F /  11.8 °C 29.6in /  1003.0hPa Calm   1mph /  1.6km/h 94% 0.06in /  1.5mm 21 W/m2
08:18 54.9 °F /  12.7 °C 53.2 °F /  11.8 °C 29.6in /  1003.0hPa ENE 0.9mph /  1.4km/h 1mph /  1.6km/h 94% 0.06in /  1.5mm 25 W/m2
08:23 55 °F /  12.8 °C 53.4 °F /  11.9 °C 29.6in /  1003.0hPa ENE 0.9mph /  1.4km/h 1mph /  1.6km/h 94% 0.05in /  1.3mm 30 W/m2
08:28 55 °F /  12.8 °C 53.4 °F /  11.9 °C 29.6in /  1003.0hPa Calm   1mph /  1.6km/h 94% 0.05in /  1.3mm 30 W/m2
08:33 55 °F /  12.8 °C 53.4 °F /  11.9 °C 29.6in /  1003.0hPa Calm   2mph /  3.2km/h 94% 0.06in /  1.5mm 32 W/m2
08:38 55 °F /  12.8 °C 53.4 °F /  11.9 °C 29.6in /  1003.0hPa Calm     94% 0.05in /  1.3mm 30 W/m2
08:43 55 °F /  12.8 °C 53.6 °F /  12 °C 29.6in /  1003.0hPa ENE 0.9mph /  1.4km/h 1mph /  1.6km/h 95% 0.04in /  1.0mm 25 W/m2
08:48 55 °F /  12.8 °C 53.6 °F /  12 °C 29.6in /  1003.0hPa Calm     95% 0.03in /  0.8mm 30 W/m2
08:53 55 °F /  12.8 °C 53.6 °F /  12 °C 29.6in /  1003.0hPa ENE 0.9mph /  1.4km/h 2mph /  3.2km/h 95% 0.02in /  0.5mm 69 W/m2
08:58 55.2 °F /  12.9 °C 53.8 °F /  12.1 °C 29.6in /  1003.0hPa ENE 0.9mph /  1.4km/h 2mph /  3.2km/h 95% 0.02in /  0.5mm 76 W/m2
09:03 55.4 °F /  13 °C 54 °F /  12.2 °C 29.6in /  1003.0hPa Calm   2mph /  3.2km/h 95% 0.02in /  0.5mm 81 W/m2
09:08 55.6 °F /  13.1 °C 54.1 °F /  12.3 °C 29.6in /  1003.0hPa Calm     95% 0.02in /  0.5mm 93 W/m2
09:13 55.8 °F /  13.2 °C 54.3 °F /  12.4 °C 29.6in /  1003.0hPa Calm   2mph /  3.2km/h 95% 0.01in /  0.2mm 120 W/m2
09:18 55.9 °F /  13.3 °C 54.5 °F /  12.5 °C 29.6in /  1003.0hPa Calm   1mph /  1.6km/h 95% 0.01in /  0.2mm 176 W/m2
09:23 56.1 °F /  13.4 °C 54.7 °F /  12.6 °C 29.6in /  1003.0hPa Calm   2mph /  3.2km/h 95% 0.01in /  0.2mm 204 W/m2
09:28 56.5 °F /  13.6 °C 55 °F /  12.8 °C 29.6in /  1003.0hPa WNW 2mph /  3.2km/h 3mph /  4.8km/h 95% 0.02in /  0.5mm 209 W/m2
09:33 56.7 °F /  13.7 °C 55.2 °F /  12.9 °C 29.6in /  1003.0hPa NE 4.9mph /  7.9km/h 8mph /  12.9km/h 95% 0.01in /  0.2mm 221 W/m2
09:38 56.7 °F /  13.7 °C 55.2 °F /  12.9 °C 29.6in /  1003.0hPa West 0.9mph /  1.4km/h 2mph /  3.2km/h 95% 0.01in /  0.2mm 239 W/m2
09:43 56.8 °F /  13.8 °C 55.4 °F /  13 °C 29.6in /  1003.0hPa NNW 2mph /  3.2km/h 8mph /  12.9km/h 95% 0.01in /  0.2mm 209 W/m2
09:48 56.8 °F /  13.8 °C 55.4 °F /  13 °C 29.6in /  1003.0hPa North 4.9mph /  7.9km/h 5mph /  8km/h 95% 0.01in /  0.2mm 179 W/m2
09:53 57 °F /  13.9 °C 55.2 °F /  12.9 °C 29.6in /  1003.0hPa WNW 2.9mph /  4.7km/h 6mph /  9.7km/h 94% 0.01in /  0.2mm 139 W/m2
09:58 56.8 °F /  13.8 °C 55.2 °F /  12.9 °C 29.6in /  1003.0hPa WNW 2mph /  3.2km/h 4mph /  6.4km/h 94% 0.02in /  0.5mm 148 W/m2
10:03 56.8 °F /  13.8 °C 54.9 °F /  12.7 °C 29.6in /  1003.4hPa NW 4.9mph /  7.9km/h 5mph /  8km/h 93% 0.02in /  0.5mm 181 W/m2
10:08 56.7 °F /  13.7 °C 54.7 °F /  12.6 °C 29.6in /  1003.4hPa WNW 11mph /  17.7km/h 11mph /  17.7km/h 93% 0.02in /  0.5mm 183 W/m2
10:13 56.5 °F /  13.6 °C 54.5 °F /  12.5 °C 29.6in /  1003.4hPa WSW 6mph /  9.7km/h 9mph /  14.5km/h 93% 0.02in /  0.5mm 179 W/m2
10:18 56.5 °F /  13.6 °C 54.5 °F /  12.5 °C 29.6in /  1003.4hPa SW 11mph /  17.7km/h 11mph /  17.7km/h 93% 0.02in /  0.5mm 148 W/m2
10:23 56.5 °F /  13.6 °C 54.5 °F /  12.5 °C 29.6in /  1003.4hPa West 2.9mph /  4.7km/h 9mph /  14.5km/h 93% 0.03in /  0.8mm 97 W/m2
10:28 56.3 °F /  13.5 °C 54.3 °F /  12.4 °C 29.6in /  1003.4hPa WNW 2mph /  3.2km/h 7mph /  11.3km/h 93% 0.02in /  0.5mm 141 W/m2
10:33 56.3 °F /  13.5 °C 54.3 °F /  12.4 °C 29.6in /  1003.7hPa SW 4mph /  6.4km/h 11mph /  17.7km/h 93% 0.03in /  0.8mm 90 W/m2
10:38 56.1 °F /  13.4 °C 54.1 °F /  12.3 °C 29.6in /  1003.7hPa NW 2mph /  3.2km/h 6mph /  9.7km/h 93% 0.03in /  0.8mm 79 W/m2
10:43 56.1 °F /  13.4 °C 54.1 °F /  12.3 °C 29.6in /  1003.7hPa NW 4mph /  6.4km/h 9mph /  14.5km/h 93% 0.04in /  1.0mm 72 W/m2
10:48 56.1 °F /  13.4 °C 54.1 °F /  12.3 °C 29.6in /  1003.7hPa SW 2.9mph /  4.7km/h 9mph /  14.5km/h 93% 0.04in /  1.0mm 91 W/m2
10:54 55.9 °F /  13.3 °C 54 °F /  12.2 °C 29.6in /  1003.7hPa WNW 4mph /  6.4km/h 7mph /  11.3km/h 93% 0.04in /  1.0mm 162 W/m2
10:59 56.1 °F /  13.4 °C 54.1 °F /  12.3 °C 29.7in /  1004.1hPa WNW 4mph /  6.4km/h 10mph /  16.1km/h 93% 0.03in /  0.8mm 84 W/m2
11:04 55.9 °F /  13.3 °C 54 °F /  12.2 °C 29.7in /  1004.1hPa WNW 4.9mph /  7.9km/h 8mph /  12.9km/h 93% 0.03in /  0.8mm 213 W/m2
11:09 55.9 °F /  13.3 °C 53.6 °F /  12 °C 29.7in /  1004.1hPa WNW 8.1mph /  13km/h 16mph /  25.7km/h 92% 0.02in /  0.5mm 258 W/m2
11:14 55.9 °F /  13.3 °C 53.6 °F /  12 °C 29.7in /  1004.1hPa West 6mph /  9.7km/h 10mph /  16.1km/h 92% 0.02in /  0.5mm 211 W/m2
11:19 55.9 °F /  13.3 °C 53.4 °F /  11.9 °C 29.7in /  1004.1hPa West 6mph /  9.7km/h 16mph /  25.7km/h 91% 0.02in /  0.5mm 127 W/m2
11:24 55.9 °F /  13.3 °C 53.4 °F /  11.9 °C 29.7in /  1004.1hPa WNW 4.9mph /  7.9km/h 9mph /  14.5km/h 91% 0.02in /  0.5mm 162 W/m2
11:29 55.9 °F /  13.3 °C 53.6 °F /  12 °C 29.7in /  1004.4hPa NNW 4mph /  6.4km/h 13mph /  20.9km/h 92% 0.02in /  0.5mm 251 W/m2
11:34 55.9 °F /  13.3 °C 53.6 °F /  12 °C 29.7in /  1004.1hPa WNW 2.9mph /  4.7km/h 6mph /  9.7km/h 92% 0.02in /  0.5mm 274 W/m2
11:39 55.9 °F /  13.3 °C 53.4 °F /  11.9 °C 29.7in /  1004.1hPa NW 8.1mph /  13km/h 8mph /  12.9km/h 91% 0.02in /  0.5mm 185 W/m2
11:44 55.9 °F /  13.3 °C 53.4 °F /  11.9 °C 29.7in /  1004.4hPa WSW 2mph /  3.2km/h 7mph /  11.3km/h 91% 0.01in /  0.2mm 118 W/m2
11:49 55.8 °F /  13.2 °C 53.2 °F /  11.8 °C 29.7in /  1004.4hPa WNW 2.9mph /  4.7km/h 4mph /  6.4km/h 91% 0.01in /  0.2mm 77 W/m2
11:54 55.8 °F /  13.2 °C 53.2 °F /  11.8 °C 29.7in /  1004.4hPa WSW 8.9mph /  14.3km/h 10mph /  16.1km/h 91% 0.01in /  0.2mm 90 W/m2
11:59 55.6 °F /  13.1 °C 53.1 °F /  11.7 °C 29.7in /  1004.7hPa NE 2.9mph /  4.7km/h 11mph /  17.7km/h 91% 0.01in /  0.2mm 109 W/m2
12:04 55.2 °F /  12.9 °C 52.7 °F /  11.5 °C 29.7in /  1004.4hPa NW 6.9mph /  11.1km/h 14mph /  22.5km/h 91% 0.01in /  0.2mm 104 W/m2
12:09 54.9 °F /  12.7 °C 52.3 °F /  11.3 °C 29.7in /  1004.7hPa WNW 11mph /  17.7km/h 11mph /  17.7km/h 91% 0.01in /  0.2mm 125 W/m2
12:14 54.7 °F /  12.6 °C 52.2 °F /  11.2 °C 29.7in /  1004.7hPa West 2mph /  3.2km/h 13mph /  20.9km/h 91% 0.01in /  0.2mm 262 W/m2
12:19 54.7 °F /  12.6 °C 52.2 °F /  11.2 °C 29.7in /  1004.7hPa North 2.9mph /  4.7km/h 11mph /  17.7km/h 91% 0.01in /  0.2mm 411 W/m2
12:24 55 °F /  12.8 °C 52.7 °F /  11.5 °C 29.7in /  1004.7hPa NW 4mph /  6.4km/h 12mph /  19.3km/h 92% 0.01in /  0.2mm 573 W/m2
12:29 55.6 °F /  13.1 °C 53.2 °F /  11.8 °C 29.7in /  1004.7hPa North 8.1mph /  13km/h 8mph /  12.9km/h 92% 0.01in /  0.2mm 622 W/m2
12:34 56.3 °F /  13.5 °C 54 °F /  12.2 °C 29.7in /  1004.4hPa West 4mph /  6.4km/h 11mph /  17.7km/h 92% 0in /  0.0mm 596 W/m2
12:39 57 °F /  13.9 °C 54.5 °F /  12.5 °C 29.7in /  1004.7hPa West 4mph /  6.4km/h 8mph /  12.9km/h 91% 0in /  0.0mm 506 W/m2
12:44 57.4 °F /  14.1 °C 54.1 °F /  12.3 °C 29.7in /  1004.7hPa WNW 2mph /  3.2km/h 7mph /  11.3km/h 89% 0in /  0.0mm 359 W/m2
12:49 57 °F /  13.9 °C 53.2 °F /  11.8 °C 29.7in /  1004.7hPa SSW 4mph /  6.4km/h 7mph /  11.3km/h 87% 0in /  0.0mm 199 W/m2
12:55 57 °F /  13.9 °C 53.2 °F /  11.8 °C 29.7in /  1004.7hPa WSW 0.9mph /  1.4km/h 4mph /  6.4km/h 87% 0in /  0.0mm 132 W/m2
13:00 57 °F /  13.9 °C 53.2 °F /  11.8 °C 29.7in /  1004.7hPa ESE 0.9mph /  1.4km/h 2mph /  3.2km/h 87% 0in /  0.0mm 81 W/m2
13:05 56.8 °F /  13.8 °C 53.1 °F /  11.7 °C 29.7in /  1004.7hPa WSW 2.9mph /  4.7km/h 3mph /  4.8km/h 87% 0in /  0.0mm 51 W/m2
13:10 56.5 °F /  13.6 °C 52.7 °F /  11.5 °C 29.7in /  1004.7hPa NW 2mph /  3.2km/h 4mph /  6.4km/h 87% 0in /  0.0mm 40 W/m2
13:15 56.1 °F /  13.4 °C 52.3 °F /  11.3 °C 29.7in /  1004.7hPa WSW 4.9mph /  7.9km/h 13mph /  20.9km/h 87% 0in /  0.0mm 137 W/m2
13:20 55.9 °F /  13.3 °C 52.5 °F /  11.4 °C 29.7in /  1004.7hPa NW 0.9mph /  1.4km/h 2mph /  3.2km/h 88% 0in /  0.0mm 265 W/m2
13:25 56.1 °F /  13.4 °C 52.7 °F /  11.5 °C 29.7in /  1004.7hPa West 2mph /  3.2km/h 8mph /  12.9km/h 88% 0in /  0.0mm 557 W/m2
13:30 56.8 °F /  13.8 °C 53.1 °F /  11.7 °C 29.7in /  1004.7hPa North 8.9mph /  14.3km/h 9mph /  14.5km/h 87% 0in /  0.0mm 693 W/m2
13:35 57.7 °F /  14.3 °C 53.6 °F /  12 °C 29.7in /  1004.7hPa West 2mph /  3.2km/h 11mph /  17.7km/h 86% 0in /  0.0mm 1030 W/m2
13:40 58.5 °F /  14.7 °C 54.3 °F /  12.4 °C 29.7in /  1004.7hPa SW 0.9mph /  1.4km/h 12mph /  19.3km/h 86% 0in /  0.0mm 269 W/m2
13:45 58.6 °F /  14.8 °C 53.4 °F /  11.9 °C 29.7in /  1004.7hPa SE 0.9mph /  1.4km/h 6mph /  9.7km/h 83% 0in /  0.0mm 425 W/m2
13:50 58.8 °F /  14.9 °C 53.1 °F /  11.7 °C 29.7in /  1004.7hPa West 2.9mph /  4.7km/h 9mph /  14.5km/h 81% 0in /  0.0mm 374 W/m2
13:55 59 °F /  15 °C 53.2 °F /  11.8 °C 29.7in /  1004.7hPa NNW 2.9mph /  4.7km/h 6mph /  9.7km/h 81% 0in /  0.0mm 520 W/m2
14:00 59.4 °F /  15.2 °C 53.2 °F /  11.8 °C 29.7in /  1004.7hPa WNW 2.9mph /  4.7km/h 6mph /  9.7km/h 80% 0in /  0.0mm 348 W/m2
14:05 59.2 °F /  15.1 °C 53.1 °F /  11.7 °C 29.7in /  1004.7hPa NW 0.9mph /  1.4km/h 7mph /  11.3km/h 80% 0in /  0.0mm 183 W/m2
14:10 59.2 °F /  15.1 °C 52.3 °F /  11.3 °C 29.7in /  1004.7hPa WNW 0.9mph /  1.4km/h 9mph /  14.5km/h 78% 0in /  0.0mm 72 W/m2
14:15 58.6 °F /  14.8 °C 51.8 °F /  11 °C 29.7in /  1004.7hPa WNW 0.9mph /  1.4km/h 4mph /  6.4km/h 78% 0in /  0.0mm 104 W/m2
14:21 58.5 °F /  14.7 °C 52 °F /  11.1 °C 29.7in /  1004.7hPa NNW 4.9mph /  7.9km/h 5mph /  8km/h 79% 0in /  0.0mm 229 W/m2
14:26 58.5 °F /  14.7 °C 52 °F /  11.1 °C 29.7in /  1004.7hPa WNW 2.9mph /  4.7km/h 4mph /  6.4km/h 79% 0in /  0.0mm 503 W/m2
14:31 58.8 °F /  14.9 °C 52.3 °F /  11.3 °C 29.7in /  1004.7hPa NNW 0.9mph /  1.4km/h 6mph /  9.7km/h 79% 0in /  0.0mm 415 W/m2
14:36 59.2 °F /  15.1 °C 52.3 °F /  11.3 °C 29.7in /  1004.7hPa NW 0.9mph /  1.4km/h 4mph /  6.4km/h 78% 0in /  0.0mm 332 W/m2
14:41 59.4 °F /  15.2 °C 52.9 °F /  11.6 °C 29.7in /  1004.7hPa WNW 6.9mph /  11.1km/h 9mph /  14.5km/h 79% 0in /  0.0mm 274 W/m2
14:46 59.4 °F /  15.2 °C 51.8 °F /  11 °C 29.7in /  1004.7hPa WNW 6mph /  9.7km/h 8mph /  12.9km/h 76% 0in /  0.0mm 204 W/m2
14:51 59.4 °F /  15.2 °C 52.2 °F /  11.2 °C 29.7in /  1004.7hPa SE 0.9mph /  1.4km/h 2mph /  3.2km/h 77% 0in /  0.0mm 367 W/m2
14:56 59.7 °F /  15.4 °C 52.5 °F /  11.4 °C 29.7in /  1004.7hPa East 2mph /  3.2km/h 4mph /  6.4km/h 77% 0in /  0.0mm 404 W/m2
15:01 60.1 °F /  15.6 °C 52.5 °F /  11.4 °C 29.7in /  1004.7hPa NW 4mph /  6.4km/h 9mph /  14.5km/h 76% 0in /  0.0mm 364 W/m2
15:06 60.3 °F /  15.7 °C 52.7 °F /  11.5 °C 29.7in /  1004.7hPa WNW 2.9mph /  4.7km/h 8mph /  12.9km/h 76% 0in /  0.0mm 325 W/m2
15:11 60.3 °F /  15.7 °C 52.7 °F /  11.5 °C 29.7in /  1004.7hPa NW 2mph /  3.2km/h 11mph /  17.7km/h 76% 0in /  0.0mm 332 W/m2
15:16 60.4 °F /  15.8 °C 52.2 °F /  11.2 °C 29.7in /  1004.7hPa ENE 4.9mph /  7.9km/h 5mph /  8km/h 74% 0in /  0.0mm 881 W/m2
15:21 61 °F /  16.1 °C 51.4 °F /  10.8 °C 29.7in /  1004.7hPa WNW 8.1mph /  13km/h 11mph /  17.7km/h 71% 0in /  0.0mm 800 W/m2
15:26 61 °F /  16.1 °C 51.1 °F /  10.6 °C 29.7in /  1004.7hPa West 6mph /  9.7km/h 13mph /  20.9km/h 70% 0in /  0.0mm 380 W/m2
15:31 61.2 °F /  16.2 °C 51.6 °F /  10.9 °C 29.7in /  1004.4hPa SE 0.9mph /  1.4km/h 8mph /  12.9km/h 71% 0in /  0.0mm 898 W/m2
15:36 61.7 °F /  16.5 °C 52.5 °F /  11.4 °C 29.7in /  1004.4hPa NNW 10mph /  16.1km/h 10mph /  16.1km/h 72% 0in /  0.0mm 420 W/m2
15:41 62.1 °F /  16.7 °C 52.2 °F /  11.2 °C 29.7in /  1004.4hPa SW 2.9mph /  4.7km/h 4mph /  6.4km/h 70% 0in /  0.0mm 227 W/m2
15:46 62.1 °F /  16.7 °C 52.5 °F /  11.4 °C 29.7in /  1004.4hPa West 4mph /  6.4km/h 4mph /  6.4km/h 71% 0in /  0.0mm 244 W/m2
15:51 61.9 °F /  16.6 °C 52.3 °F /  11.3 °C 29.7in /  1004.4hPa NNW 4mph /  6.4km/h 5mph /  8km/h 71% 0in /  0.0mm 230 W/m2
15:56 61.5 °F /  16.4 °C 52 °F /  11.1 °C 29.7in /  1004.4hPa NW 8.9mph /  14.3km/h 10mph /  16.1km/h 71% 0in /  0.0mm 276 W/m2
16:01 61.5 °F /  16.4 °C 52.3 °F /  11.3 °C 29.7in /  1004.4hPa NE 0.9mph /  1.4km/h 11mph /  17.7km/h 72% 0in /  0.0mm 318 W/m2
16:06 61.7 °F /  16.5 °C 52.5 °F /  11.4 °C 29.7in /  1004.4hPa WSW 0.9mph /  1.4km/h 9mph /  14.5km/h 72% 0in /  0.0mm 318 W/m2
16:11 61.5 °F /  16.4 °C 52 °F /  11.1 °C 29.7in /  1004.4hPa NW 2.9mph /  4.7km/h 8mph /  12.9km/h 71% 0in /  0.0mm 294 W/m2
16:16 61.7 °F /  16.5 °C 52.2 °F /  11.2 °C 29.7in /  1004.4hPa WNW 0.9mph /  1.4km/h 4mph /  6.4km/h 71% 0in /  0.0mm 239 W/m2
16:21 61.9 °F /  16.6 °C 52.3 °F /  11.3 °C 29.7in /  1004.4hPa WNW 2mph /  3.2km/h 3mph /  4.8km/h 71% 0in /  0.0mm 345 W/m2
16:26 62.1 °F /  16.7 °C 51.8 °F /  11 °C 29.7in /  1004.4hPa WSW 2mph /  3.2km/h 6mph /  9.7km/h 69% 0in /  0.0mm 443 W/m2
16:31 62.4 °F /  16.9 °C 51.3 °F /  10.7 °C 29.7in /  1004.4hPa NW 2mph /  3.2km/h 9mph /  14.5km/h 67% 0in /  0.0mm 432 W/m2
16:36 62.8 °F /  17.1 °C 51.6 °F /  10.9 °C 29.7in /  1004.4hPa West 8.9mph /  14.3km/h 9mph /  14.5km/h 67% 0in /  0.0mm 262 W/m2
16:41 62.4 °F /  16.9 °C 51.3 °F /  10.7 °C 29.7in /  1004.4hPa WNW 4mph /  6.4km/h 11mph /  17.7km/h 67% 0in /  0.0mm 378 W/m2
16:46 62.4 °F /  16.9 °C 51.8 °F /  11 °C 29.7in /  1004.4hPa East 2mph /  3.2km/h 6mph /  9.7km/h 68% 0in /  0.0mm 308 W/m2
16:51 62.4 °F /  16.9 °C 51.8 °F /  11 °C 29.7in /  1004.4hPa West 2mph /  3.2km/h 5mph /  8km/h 68% 0in /  0.0mm 292 W/m2
16:56 62.2 °F /  16.8 °C 51.6 °F /  10.9 °C 29.7in /  1004.1hPa Calm   4mph /  6.4km/h 68% 0in /  0.0mm 294 W/m2
17:02 62.6 °F /  17 °C 52.3 °F /  11.3 °C 29.7in /  1004.1hPa WNW 2mph /  3.2km/h 3mph /  4.8km/h 69% 0in /  0.0mm 436 W/m2
17:07 62.8 °F /  17.1 °C 52 °F /  11.1 °C 29.7in /  1004.1hPa NW 2.9mph /  4.7km/h 4mph /  6.4km/h 68% 0in /  0.0mm 190 W/m2
17:12 63 °F /  17.2 °C 51.8 °F /  11 °C 29.7in /  1004.1hPa West 6mph /  9.7km/h 8mph /  12.9km/h 67% 0in /  0.0mm 204 W/m2
17:17 62.6 °F /  17 °C 51.4 °F /  10.8 °C 29.7in /  1004.1hPa NW 6mph /  9.7km/h 8mph /  12.9km/h 67% 0in /  0.0mm 279 W/m2
17:22 62.6 °F /  17 °C 51.4 °F /  10.8 °C 29.7in /  1004.1hPa NW 2.9mph /  4.7km/h 6mph /  9.7km/h 67% 0in /  0.0mm 250 W/m2
17:27 62.4 °F /  16.9 °C 50.9 °F /  10.5 °C 29.7in /  1004.1hPa NW 2.9mph /  4.7km/h 6mph /  9.7km/h 66% 0in /  0.0mm 378 W/m2
17:32 62.8 °F /  17.1 °C 50.9 °F /  10.5 °C 29.7in /  1004.1hPa NW 4mph /  6.4km/h 6mph /  9.7km/h 65% 0in /  0.0mm 190 W/m2
17:37 63 °F /  17.2 °C 51.4 °F /  10.8 °C 29.7in /  1004.1hPa WSW 2mph /  3.2km/h 6mph /  9.7km/h 66% 0in /  0.0mm 209 W/m2
17:42 63 °F /  17.2 °C 51.4 °F /  10.8 °C 29.7in /  1004.1hPa NNW 2mph /  3.2km/h 6mph /  9.7km/h 66% 0in /  0.0mm 376 W/m2
17:47 62.8 °F /  17.1 °C 51.3 °F /  10.7 °C 29.7in /  1004.4hPa East 8.1mph /  13km/h 8mph /  12.9km/h 66% 0in /  0.0mm 160 W/m2
17:52 62.4 °F /  16.9 °C 50 °F /  10 °C 29.7in /  1004.4hPa WNW 2mph /  3.2km/h 6mph /  9.7km/h 64% 0in /  0.0mm 288 W/m2
17:57 62.8 °F /  17.1 °C 50.9 °F /  10.5 °C 29.7in /  1004.1hPa WSW 2.9mph /  4.7km/h 4mph /  6.4km/h 65% 0in /  0.0mm 343 W/m2
18:02 63 °F /  17.2 °C 50.5 °F /  10.3 °C 29.7in /  1004.1hPa NNW 0.9mph /  1.4km/h 4mph /  6.4km/h 64% 0in /  0.0mm 345 W/m2
18:07 63 °F /  17.2 °C 50.5 °F /  10.3 °C 29.7in /  1004.1hPa WSW 2.9mph /  4.7km/h 9mph /  14.5km/h 64% 0in /  0.0mm 84 W/m2
18:12 62.4 °F /  16.9 °C 50.5 °F /  10.3 °C 29.7in /  1004.4hPa West 2mph /  3.2km/h 7mph /  11.3km/h 65% 0in /  0.0mm 116 W/m2
18:17 62.1 °F /  16.7 °C 50.9 °F /  10.5 °C 29.7in /  1004.4hPa ENE 0.9mph /  1.4km/h 9mph /  14.5km/h 67% 0in /  0.0mm 158 W/m2
18:22 62.1 °F /  16.7 °C 50.9 °F /  10.5 °C 29.7in /  1004.4hPa WNW 4mph /  6.4km/h 4mph /  6.4km/h 67% 0in /  0.0mm 330 W/m2
18:27 62.4 °F /  16.9 °C 50.9 °F /  10.5 °C 29.7in /  1004.1hPa South 2mph /  3.2km/h 7mph /  11.3km/h 66% 0in /  0.0mm 149 W/m2
18:32 62.4 °F /  16.9 °C 51.3 °F /  10.7 °C 29.7in /  1004.1hPa Calm   4mph /  6.4km/h 67% 0in /  0.0mm 174 W/m2
18:38 62.4 °F /  16.9 °C 51.8 °F /  11 °C 29.7in /  1004.1hPa SW 0.9mph /  1.4km/h 7mph /  11.3km/h 68% 0in /  0.0mm 295 W/m2
18:43 62.6 °F /  17 °C 51.1 °F /  10.6 °C 29.7in /  1004.1hPa West 0.9mph /  1.4km/h 6mph /  9.7km/h 66% 0in /  0.0mm 258 W/m2
18:48 62.8 °F /  17.1 °C 51.3 °F /  10.7 °C 29.7in /  1004.1hPa West 2mph /  3.2km/h 8mph /  12.9km/h 66% 0in /  0.0mm 169 W/m2
18:53 62.4 °F /  16.9 °C 51.3 °F /  10.7 °C 29.7in /  1004.1hPa NE 2mph /  3.2km/h 3mph /  4.8km/h 67% 0in /  0.0mm 132 W/m2
18:58 62.4 °F /  16.9 °C 51.3 °F /  10.7 °C 29.7in /  1004.1hPa NNE 0.9mph /  1.4km/h 4mph /  6.4km/h 67% 0in /  0.0mm 123 W/m2
19:03 62.1 °F /  16.7 °C 51.4 °F /  10.8 °C 29.7in /  1004.1hPa Calm   1mph /  1.6km/h 68% 0in /  0.0mm 116 W/m2
19:08 62.1 °F /  16.7 °C 51.4 °F /  10.8 °C 29.7in /  1004.1hPa South 0.9mph /  1.4km/h 4mph /  6.4km/h 68% 0in /  0.0mm 91 W/m2
19:13 61.9 °F /  16.6 °C 51.6 °F /  10.9 °C 29.7in /  1004.4hPa Calm   1mph /  1.6km/h 69% 0in /  0.0mm 79 W/m2
19:18 61.7 °F /  16.5 °C 51.4 °F /  10.8 °C 29.7in /  1004.4hPa ENE 2.9mph /  4.7km/h 3mph /  4.8km/h 69% 0in /  0.0mm 83 W/m2
19:23 61.5 °F /  16.4 °C 51.6 °F /  10.9 °C 29.7in /  1004.4hPa Calm   2mph /  3.2km/h 70% 0in /  0.0mm 65 W/m2
19:28 61.3 °F /  16.3 °C 52.2 °F /  11.2 °C 29.7in /  1004.4hPa East 2mph /  3.2km/h 3mph /  4.8km/h 72% 0in /  0.0mm 104 W/m2
19:33 61.2 °F /  16.2 °C 52 °F /  11.1 °C 29.7in /  1004.4hPa Calm   1mph /  1.6km/h 72% 0in /  0.0mm 86 W/m2
19:38 61.2 °F /  16.2 °C 52.5 °F /  11.4 °C 29.7in /  1004.4hPa Calm     73% 0in /  0.0mm 79 W/m2
19:43 60.8 °F /  16 °C 51.3 °F /  10.7 °C 29.7in /  1004.4hPa Calm   3mph /  4.8km/h 71% 0in /  0.0mm 79 W/m2
19:48 60.6 °F /  15.9 °C 51.1 °F /  10.6 °C 29.7in /  1004.4hPa Calm   1mph /  1.6km/h 71% 0in /  0.0mm 81 W/m2
19:53 60.6 °F /  15.9 °C 51.1 °F /  10.6 °C 29.7in /  1004.4hPa Calm   4mph /  6.4km/h 71% 0in /  0.0mm 65 W/m2
19:58 60.6 °F /  15.9 °C 51.6 °F /  10.9 °C 29.7in /  1004.4hPa Calm   1mph /  1.6km/h 72% 0in /  0.0mm 44 W/m2
20:03 60.4 °F /  15.8 °C 51.8 °F /  11 °C 29.7in /  1004.4hPa Calm   1mph /  1.6km/h 73% 0in /  0.0mm 33 W/m2
20:08 60.3 °F /  15.7 °C 52 °F /  11.1 °C 29.7in /  1004.4hPa Calm   1mph /  1.6km/h 74% 0in /  0.0mm 28 W/m2
20:13 59.7 °F /  15.4 °C 52.2 °F /  11.2 °C 29.7in /  1004.4hPa East 0.9mph /  1.4km/h 2mph /  3.2km/h 76% 0in /  0.0mm 26 W/m2
20:18 59.4 °F /  15.2 °C 51.1 °F /  10.6 °C 29.7in /  1004.4hPa Calm   1mph /  1.6km/h 74% 0in /  0.0mm 23 W/m2
20:23 59.2 °F /  15.1 °C 52 °F /  11.1 °C 29.7in /  1004.4hPa SE 0.9mph /  1.4km/h 2mph /  3.2km/h 77% 0in /  0.0mm 19 W/m2
20:28 58.6 °F /  14.8 °C 51.8 °F /  11 °C 29.7in /  1004.4hPa SE 0.9mph /  1.4km/h 1mph /  1.6km/h 78% 0in /  0.0mm 14 W/m2
20:33 58.3 °F /  14.6 °C 51.8 °F /  11 °C 29.7in /  1004.4hPa SE 0.9mph /  1.4km/h 2mph /  3.2km/h 79% 0in /  0.0mm 11 W/m2
20:38 57.6 °F /  14.2 °C 51.4 °F /  10.8 °C 29.7in /  1004.4hPa SE 0.9mph /  1.4km/h 1mph /  1.6km/h 80% 0in /  0.0mm 9 W/m2
20:44 57 °F /  13.9 °C 51.3 °F /  10.7 °C 29.7in /  1004.4hPa Calm   2mph /  3.2km/h 81% 0in /  0.0mm 5 W/m2
20:49 56.7 °F /  13.7 °C 51.3 °F /  10.7 °C 29.7in /  1004.4hPa Calm   2mph /  3.2km/h 82% 0in /  0.0mm 5 W/m2
20:54 56.1 °F /  13.4 °C 50.7 °F /  10.4 °C 29.7in /  1004.4hPa Calm     82% 0in /  0.0mm 0 W/m2
20:59 55.9 °F /  13.3 °C 50.9 °F /  10.5 °C 29.7in /  1004.7hPa Calm     83% 0in /  0.0mm 0 W/m2
21:04 55.6 °F /  13.1 °C 50.9 °F /  10.5 °C 29.7in /  1004.7hPa Calm     84% 0in /  0.0mm 0 W/m2
21:09 55.2 °F /  12.9 °C 50.5 °F /  10.3 °C 29.7in /  1004.7hPa Calm     84% 0in /  0.0mm 0 W/m2
21:14 54.9 °F /  12.7 °C 50.4 °F /  10.2 °C 29.7in /  1004.7hPa Calm     85% 0in /  0.0mm 0 W/m2
21:19 54.7 °F /  12.6 °C 50.5 °F /  10.3 °C 29.7in /  1004.7hPa Calm     86% 0in /  0.0mm 0 W/m2
21:24 54.1 °F /  12.3 °C 50 °F /  10 °C 29.7in /  1004.7hPa Calm     86% 0in /  0.0mm 0 W/m2
21:29 54 °F /  12.2 °C 49.8 °F /  9.9 °C 29.7in /  1004.7hPa Calm     86% 0in /  0.0mm 0 W/m2
21:34 53.8 °F /  12.1 °C 50 °F /  10 °C 29.7in /  1004.7hPa Calm     87% 0in /  0.0mm 0 W/m2
21:39 53.4 °F /  11.9 °C 49.6 °F /  9.8 °C 29.7in /  1005.1hPa Calm     87% 0in /  0.0mm 0 W/m2
21:44 53.2 °F /  11.8 °C 49.5 °F /  9.7 °C 29.7in /  1005.1hPa Calm     87% 0in /  0.0mm 0 W/m2
21:49 53.1 °F /  11.7 °C 49.6 °F /  9.8 °C 29.7in /  1005.1hPa Calm     88% 0in /  0.0mm 0 W/m2
21:54 52.9 °F /  11.6 °C 49.5 °F /  9.7 °C 29.7in /  1005.1hPa Calm     88% 0in /  0.0mm 0 W/m2
21:59 52.9 °F /  11.6 °C 49.6 °F /  9.8 °C 29.7in /  1005.1hPa Calm     89% 0in /  0.0mm 0 W/m2
22:04 52.5 °F /  11.4 °C 49.5 °F /  9.7 °C 29.7in /  1005.1hPa Calm     89% 0in /  0.0mm 0 W/m2
22:09 52.5 °F /  11.4 °C 49.5 °F /  9.7 °C 29.7in /  1005.1hPa Calm     89% 0in /  0.0mm 0 W/m2
22:14 52.5 °F /  11.4 °C 49.5 °F /  9.7 °C 29.7in /  1005.1hPa Calm     89% 0in /  0.0mm 0 W/m2
22:19 52.3 °F /  11.3 °C 49.3 °F /  9.6 °C 29.7in /  1005.1hPa Calm     89% 0in /  0.0mm 0 W/m2
22:24 52.3 °F /  11.3 °C 49.5 °F /  9.7 °C 29.7in /  1005.1hPa Calm     90% 0in /  0.0mm 0 W/m2
22:29 52.3 °F /  11.3 °C 49.5 °F /  9.7 °C 29.7in /  1005.4hPa Calm     90% 0in /  0.0mm 0 W/m2
22:34 52.2 °F /  11.2 °C 49.3 °F /  9.6 °C 29.7in /  1005.1hPa Calm     90% 0in /  0.0mm 0 W/m2
22:39 52 °F /  11.1 °C 49.1 °F /  9.5 °C 29.7in /  1005.4hPa Calm     90% 0in /  0.0mm 0 W/m2
22:44 52 °F /  11.1 °C 49.1 °F /  9.5 °C 29.7in /  1005.4hPa Calm     90% 0in /  0.0mm 0 W/m2
22:49 52 °F /  11.1 °C 49.1 °F /  9.5 °C 29.7in /  1005.4hPa Calm     90% 0in /  0.0mm 0 W/m2
22:55 52 °F /  11.1 °C 49.1 °F /  9.5 °C 29.7in /  1005.4hPa Calm     90% 0in /  0.0mm 0 W/m2
23:00 52 °F /  11.1 °C 48.9 °F /  9.4 °C 29.7in /  1005.4hPa South 0.9mph /  1.4km/h 1mph /  1.6km/h 89% 0in /  0.0mm 0 W/m2
23:05 52.2 °F /  11.2 °C 49.1 °F /  9.5 °C 29.7in /  1005.4hPa WSW 0.9mph /  1.4km/h 2mph /  3.2km/h 89% 0in /  0.0mm 0 W/m2
23:10 52.5 °F /  11.4 °C 48.7 °F /  9.3 °C 29.7in /  1005.4hPa West 0.9mph /  1.4km/h 2mph /  3.2km/h 87% 0in /  0.0mm 0 W/m2
23:15 53.1 °F /  11.7 °C 48.7 °F /  9.3 °C 29.7in /  1005.4hPa NNE 0.9mph /  1.4km/h 3mph /  4.8km/h 85% 0in /  0.0mm 0 W/m2
23:20 53.6 °F /  12 °C 48.6 °F /  9.2 °C 29.7in /  1005.4hPa WNW 0.9mph /  1.4km/h 2mph /  3.2km/h 83% 0in /  0.0mm 0 W/m2
23:25 54 °F /  12.2 °C 48.6 °F /  9.2 °C 29.7in /  1005.4hPa WSW 2.9mph /  4.7km/h 5mph /  8km/h 82% 0in /  0.0mm 0 W/m2
23:30 54.3 °F /  12.4 °C 48.2 °F /  9 °C 29.7in /  1005.4hPa WSW 2.9mph /  4.7km/h 3mph /  4.8km/h 80% 0in /  0.0mm 0 W/m2
23:35 54.7 °F /  12.6 °C 48.4 °F /  9.1 °C 29.7in /  1005.4hPa Calm   1mph /  1.6km/h 79% 0in /  0.0mm 0 W/m2
23:40 54.7 °F /  12.6 °C 48.4 °F /  9.1 °C 29.7in /  1005.4hPa NW 0.9mph /  1.4km/h 3mph /  4.8km/h 79% 0in /  0.0mm 0 W/m2
23:45 54.7 °F /  12.6 °C 48.4 °F /  9.1 °C 29.7in /  1005.8hPa NNW 0.9mph /  1.4km/h 1mph /  1.6km/h 79% 0in /  0.0mm 0 W/m2
23:51 54.5 °F /  12.5 °C 48.2 °F /  9 °C 29.7in /  1005.8hPa NNW 2mph /  3.2km/h 4mph /  6.4km/h 79% 0in /  0.0mm 0 W/m2
23:56 54.7 °F /  12.6 °C 48 °F /  8.9 °C 29.7in /  1005.8hPa NNW 2mph /  3.2km/h 2mph /  3.2km/h 78% 0in /  0.0mm 0 W/m2
Juneau County Weather
Compliments of Weather Underground - 4 mb